Saint Charles, Michigan
Current Conditions -  °F | °C
As of 10:53 AM on Saturday 25 Oct 2014 (Local Time) from KMBS Reporting Station
Scattered Clouds Scattered Clouds  
Wind Chill: 59°   Ceiling: Unl
Heat Index: 59°   Visibility: 7mi
Dew Point: 52°   Wind: 16mph
Humidity: 78%   Direction: 260°W
Pressure: 29.78"   Gusts: NA
Location:  43.3°N, 84.14°W
Report Text: KMBS 251453Z 26014KT 7SM SCT015 15/11 A2978 RMK AO2 SLP086 T01500111 50002
Loading
Personal Weather Stations






























Interactive Weather Map
Tropical Storm Tracking
New forecast layout! Learn more

10-Day Weather Forecast

Advertisements
Track Severe Weather on mobile